• Join FlightAware (Why Join?)
  • Login
  • US Flag 
07:27AM EST


 

Airport Tracker/Info


-or-


 

Live Flight TrackerFlight Track Log ✈ SWA565 ✈ 14-Apr-2013 ✈ KSLC - KLAS

Flight Track Log - Related Links

Times and Time Zones

All times are in EDT time to prevent confusion due to time zone crossing. See the SWA565 flight status page for this flight to view local times or setup timezone preferences in your user account.

Time Position Orientation Groundspeed Altitude Reporting Facility
EDT Latitude Longitude Course Direction KTS MPH feet Rate Location/Type
11:07PM 40.8067 -112.0019 285° West 151 174 5,400  Level Salt Lake Center
11:08PM 40.8214 -112.0764 285° West 231 266 7,900 3,600 Climbing Salt Lake Center
11:08PM 40.8203 -112.1589 269° West 245 282 12,300 4,320 Climbing Salt Lake Center
11:10PM 40.7919 -112.2428 246° West 232 267 17,000 3,360 Climbing Salt Lake Center
11:11PM 40.7186 -112.2828 202° Southwest 301 346 19,800 3,180 Climbing Salt Lake Center
11:12PM 40.6358 -112.2989 188° South 302 348 23,500 3,060 Climbing Salt Lake Center
11:13PM 40.5469 -112.3150 188° South 324 373 26,100 2,400 Climbing Salt Lake Center
11:14PM 40.4531 -112.3344 189° South 343 395 28,400 1,740 Climbing Salt Lake Center
11:15PM 40.3464 -112.3586 190° South 393 452 29,700 1,740 Climbing Salt Lake Center
11:16PM 40.2578 -112.4139 205° Southwest 347 399 32,000 1,080 Climbing Salt Lake Center
11:17PM 40.1553 -112.4878 209° Southwest 351 404 32,000  Level Salt Lake Center
11:18PM 40.0683 -112.5475 208° Southwest 354 407 32,000  Level Salt Lake Center
11:19PM 39.9817 -112.6089 208° Southwest 356 410 32,000  Level Salt Lake Center
11:20PM 39.8953 -112.6708 209° Southwest 355 409 32,000  Level Salt Lake Center
11:21PM 39.8064 -112.7289 207° Southwest 356 410 32,000  Level Salt Lake Center
11:22PM 39.7239 -112.7858 208° Southwest 358 412 32,000  Level Salt Lake Center
11:23PM 39.6261 -112.8253 197° South 370 426 32,000  Level Salt Lake Center
11:24PM 39.5081 -112.8764 198° South 373 429 32,000  Level Salt Lake Center
11:25PM 39.4083 -112.9189 198° South 378 435 32,000  Level Salt Lake Center
11:26PM 39.3097 -112.9600 198° South 375 432 32,000  Level Salt Lake Center
11:27PM 39.2103 -113.0039 199° South 378 435 32,000  Level Salt Lake Center
11:28PM 39.1111 -113.0461 198° South 377 434 32,000  Level Salt Lake Center
11:29PM 39.0111 -113.0875 198° South 377 434 32,000  Level Salt Lake Center
11:30PM 38.9111 -113.1289 198° South 379 436 32,000  Level Salt Lake Center
11:31PM 38.8100 -113.1719 198° South 382 440 32,000  Level Salt Lake Center
11:32PM 38.7100 -113.2139 198° South 381 438 32,000  Level Salt Lake Center
11:33PM 38.6086 -113.2567 198° South 383 441 32,000  Level Salt Lake Center
11:34PM 38.4878 -113.3086 199° South 383 441 32,000  Level Salt Lake Center
11:35PM 38.3853 -113.3522 198° South 387 445 32,000  Level Salt Lake Center
11:36PM 38.2825 -113.3931 197° South 388 447 32,000  Level Salt Lake Center
11:37PM 38.1806 -113.4356 198° South 388 447 32,000  Level Salt Lake Center
11:38PM 38.0789 -113.4797 199° South 388 447 32,000  Level Salt Lake Center
11:39PM 37.9781 -113.5217 198° South 385 443 32,000  Level Salt Lake Center
11:40PM 37.8758 -113.5628 198° South 387 445 32,000  Level Salt Lake Center
11:41PM 37.7739 -113.6053 198° South 388 447 32,000  Level Salt Lake Center
11:42PM 37.6708 -113.6469 198° South 390 449 32,000  Level Salt Lake Center
11:43PM 37.5453 -113.6967 197° South 396 456 32,000  Level Salt Lake Center
11:44PM 37.4414 -113.7381 198° South 395 455 32,000  Level Salt Lake Center
11:45PM 37.3361 -113.7808 198° South 398 458 32,000  Level Salt Lake Center
11:46PM 37.2311 -113.8231 198° South 398 458 32,000 -240 Level Salt Lake Center
11:47PM 37.1275 -113.8664 198° South 396 456 31,600 -1,200 Descending Salt Lake Center
11:48PM 37.0542 -113.8917 195° South 390 449 30,000 -2,100 Descending Los Angeles Center
11:49PM 36.9539 -113.9325 198° South 380 437 27,900 -2,100 Descending Los Angeles Center
11:50PM 36.8581 -113.9706 198° South 365 420 25,800 -2,100 Descending Los Angeles Center
11:51PM 36.7547 -114.0122 198° South 359 413 23,600 -2,100 Descending Los Angeles Center
11:52PM 36.6603 -114.0503 198° South 358 412 21,500 -2,040 Descending Los Angeles Center
11:53PM 36.5917 -114.1303 223° Southwest 347 399 19,000 -2,400 Descending Los Angeles Center
11:54PM 36.5236 -114.2506 235° Southwest 326 375 16,100 -2,460 Descending Los Angeles Center
11:55PM 36.4822 -114.3322 238° Southwest 306 352 14,500 -1,500 Descending Los Angeles Center
11:56PM 36.4747 -114.3372 208° Southwest 312 359 14,300 -1,800 Descending Los Angeles Center
11:56PM 36.4386 -114.4086 238° Southwest 299 344 12,900 -2,040 Descending Los Angeles Center
11:57PM 36.4175 -114.4375 228° Southwest 300 345 12,200 -720 Descending Los Angeles Center
11:58PM 36.3597 -114.4917 217° Southwest 302 348 12,000 -600 Descending Los Angeles Center
11:58PM 36.2903 -114.5100 192° South 295 339 11,300 -840 Descending Los Angeles Center
11:59PM 36.2553 -114.5228 196° South 297 342 11,000 -1,020 Descending Los Angeles Center
11:59PM 36.2339 -114.5583 233° Southwest 280 322 10,400 -1,080 Descending Los Angeles Center
12:00AM 36.2044 -114.5917 222° Southwest 268 308 9,900 -1,200 Descending Los Angeles Center
12:00AM 36.1814 -114.6242 229° Southwest 259 298 9,200 -1,620 Descending Los Angeles Center
12:01AM 36.1639 -114.6617 240° Southwest 255 293 8,300 -1,560 Descending Los Angeles Center
12:02AM 36.1536 -114.7322 260° West 259 298 7,200 -1,260 Descending Los Angeles Center
12:02AM 36.1503 -114.7492 256° West 257 296 7,000 -600 Descending Los Angeles Center
12:03AM 36.1442 -114.8075 263° West 237 273 6,700 -600 Descending Los Angeles Center
12:03AM 36.1394 -114.8314 256° West 250 288 6,400 -720 Descending Los Angeles Center
12:04AM 36.1378 -114.8869 268° West 231 266 6,000 -420 Descending Los Angeles Center
12:04AM 36.1350 -114.9086 261° West 234 269 6,000 -120 Level Los Angeles Center
12:05AM 36.1339 -114.9575 268° West 189 217 5,900 -300 Descending Los Angeles Center
12:05AM 36.1328 -114.9747 265° West 205 236 5,700 -1,140 Descending Los Angeles Center
12:06AM 36.1361 -115.0178 275° West 175 201 4,800 -1,200 Descending Los Angeles Center
12:06AM 36.1372 -115.0333 275° West 183 211 4,500 -1,200 Descending Los Angeles Center
12:07AM 36.1386 -115.0783 272° West 172 198 3,600 -1,140 Descending Los Angeles Center
12:07AM 36.1397 -115.1017 273° West 173 199 3,400 -720 Descending Los Angeles Center
12:08AM 36.1297 -115.1267 244° Southwest 136 157 2,900 -780 Descending Los Angeles Center
12:08AM 36.1231 -115.1406 239° Southwest 144 166 2,600 -720 Descending Los Angeles Center
12:09AM 36.1006 -115.1522 203° Southwest 125 144 2,100 -600 Descending Los Angeles Center
12:09AM 36.0908 -115.1567 200° South 130 150 2,000 -300 Descending Los Angeles Center
12:11AM 36.0801 -115.1523 219° Southwest  Level Estimated